createdAt,value
2022-07-29T00:00:00.250Z,72.30
2022-07-29T00:02:30.288Z,72.40
2022-07-29T00:04:57.320Z,72.40
2022-07-29T00:07:24.241Z,72.80
2022-07-29T00:09:52.675Z,72.30
2022-07-29T00:12:26.087Z,72.40
2022-07-29T00:14:54.934Z,72.80
2022-07-29T00:17:21.952Z,72.40
2022-07-29T00:19:48.922Z,72.80
2022-07-29T00:22:15.866Z,73.70
2022-07-29T00:24:43.082Z,74.10
2022-07-29T00:27:10.071Z,75.30
2022-07-29T00:29:37.036Z,74.70
2022-07-29T00:32:04.658Z,75.30
2022-07-29T00:34:50.339Z,74.40
2022-07-29T00:37:17.405Z,74.80
2022-07-29T00:39:44.726Z,74.60
2022-07-29T00:42:11.758Z,74.90
2022-07-29T00:44:40.086Z,75.20
2022-07-29T00:47:07.652Z,75.20
2022-07-29T00:49:34.960Z,75.10
2022-07-29T00:52:03.311Z,75.10
2022-07-29T00:54:30.293Z,75.80
2022-07-29T00:57:00.558Z,75.90
2022-07-29T00:59:34.588Z,76.40
2022-07-29T01:02:05.904Z,76.30
2022-07-29T01:04:33.114Z,76.30
2022-07-29T01:07:01.945Z,76.40
2022-07-29T01:09:37.301Z,77.30
2022-07-29T01:12:18.462Z,77.30
2022-07-29T01:14:46.001Z,76.80
2022-07-29T01:17:33.310Z,76.60
2022-07-29T01:20:09.319Z,77.50
2022-07-29T01:22:36.350Z,77.60
2022-07-29T01:25:21.870Z,76.90
2022-07-29T01:28:25.867Z,77.20
2022-07-29T01:30:53.776Z,78.30
2022-07-29T01:33:39.125Z,77.00
2022-07-29T01:36:18.798Z,78.60
2022-07-29T01:39:01.936Z,78.20
2022-07-29T01:41:28.982Z,77.90
2022-07-29T01:43:58.502Z,77.90
2022-07-29T01:46:36.076Z,78.00
2022-07-29T01:49:21.621Z,77.60
2022-07-29T01:52:10.094Z,78.80
2022-07-29T01:54:40.303Z,79.00
2022-07-29T01:57:08.508Z,77.70
2022-07-29T01:59:35.851Z,77.90
2022-07-29T02:02:03.378Z,78.00
2022-07-29T02:04:30.519Z,78.20
2022-07-29T02:06:59.887Z,79.00
2022-07-29T02:09:26.835Z,79.60
2022-07-29T02:11:54.441Z,78.50
2022-07-29T02:14:22.478Z,78.50
2022-07-29T02:16:51.315Z,78.40
2022-07-29T02:19:19.319Z,78.20
2022-07-29T02:21:46.732Z,77.90
2022-07-29T02:24:14.134Z,78.20
2022-07-29T02:26:42.067Z,78.20
2022-07-29T02:29:09.267Z,78.50
2022-07-29T02:31:36.671Z,79.10
2022-07-29T02:34:04.758Z,79.80
2022-07-29T02:36:31.774Z,79.70
2022-07-29T02:39:01.622Z,79.70
2022-07-29T02:41:48.980Z,80.00
2022-07-29T02:44:18.239Z,79.60
2022-07-29T02:47:00.621Z,79.60
2022-07-29T02:49:33.652Z,81.70
2022-07-29T02:52:07.360Z,81.40
2022-07-29T02:54:45.589Z,81.10
2022-07-29T02:57:28.809Z,81.80
2022-07-29T02:59:55.715Z,81.40
2022-07-29T03:02:22.752Z,80.90
2022-07-29T03:04:50.294Z,80.90
2022-07-29T03:07:17.595Z,80.90
2022-07-29T03:09:44.557Z,80.70
2022-07-29T03:12:11.673Z,80.70
2022-07-29T03:14:39.241Z,80.50
2022-07-29T03:17:06.168Z,81.00
2022-07-29T03:19:33.058Z,81.90
2022-07-29T03:22:00.258Z,82.60
2022-07-29T03:24:34.388Z,82.80
2022-07-29T03:27:01.685Z,82.70
2022-07-29T03:29:33.205Z,82.20
2022-07-29T03:32:08.234Z,81.90
2022-07-29T03:34:36.666Z,82.30
2022-07-29T03:37:03.667Z,82.60
2022-07-29T03:39:32.680Z,83.80
2022-07-29T03:41:59.594Z,83.80
2022-07-29T03:44:26.463Z,84.50
2022-07-29T03:46:53.637Z,85.10
2022-07-29T03:49:20.738Z,85.60
2022-07-29T03:51:47.735Z,86.10
2022-07-29T03:54:14.798Z,86.20
2022-07-29T03:56:45.630Z,86.10
2022-07-29T03:59:12.810Z,86.70
2022-07-29T04:01:39.879Z,86.10
2022-07-29T04:04:06.861Z,85.20
2022-07-29T04:06:43.814Z,84.80
2022-07-29T04:09:10.801Z,85.60
2022-07-29T04:12:00.683Z,84.70
2022-07-29T04:14:26.156Z,84.80
2022-07-29T04:16:54.098Z,85.10
2022-07-29T04:19:21.148Z,85.10
2022-07-29T04:21:48.136Z,85.40
2022-07-29T04:24:15.384Z,85.00
2022-07-29T04:26:43.053Z,85.40
2022-07-29T04:29:09.970Z,85.90
2022-07-29T04:31:36.969Z,85.90
2022-07-29T04:34:03.964Z,86.50
2022-07-29T04:36:30.930Z,86.40
2022-07-29T04:38:57.920Z,87.20
2022-07-29T04:41:25.737Z,87.10
2022-07-29T04:44:02.045Z,87.00
2022-07-29T04:46:29.216Z,86.60
2022-07-29T04:48:56.342Z,86.10
2022-07-29T04:51:23.423Z,86.10
2022-07-29T04:53:50.358Z,86.10
2022-07-29T04:56:17.489Z,86.10
2022-07-29T04:58:44.426Z,86.10
2022-07-29T05:01:11.465Z,86.20
2022-07-29T05:03:38.556Z,86.20
2022-07-29T05:06:05.574Z,86.30
2022-07-29T05:08:32.496Z,86.90
2022-07-29T05:10:59.413Z,85.90
2022-07-29T05:13:45.197Z,85.80
2022-07-29T05:16:14.174Z,85.10
2022-07-29T05:18:41.473Z,84.10
2022-07-29T05:21:08.395Z,83.10
2022-07-29T05:23:35.460Z,80.30
2022-07-29T05:26:02.704Z,78.70
2022-07-29T05:28:29.718Z,77.20
2022-07-29T05:30:57.355Z,75.30
2022-07-29T05:33:35.124Z,76.60
2022-07-29T05:36:07.752Z,74.80
2022-07-29T05:38:36.495Z,72.60
2022-07-29T05:41:03.669Z,72.40
2022-07-29T05:43:30.698Z,70.30
2022-07-29T05:45:57.970Z,68.70
2022-07-29T05:48:25.343Z,68.10
2022-07-29T05:50:52.402Z,67.80
2022-07-29T05:53:20.846Z,64.50
2022-07-29T05:55:52.703Z,65.70
2022-07-29T05:58:19.611Z,61.30
2022-07-29T06:00:46.566Z,63.80
2022-07-29T06:03:13.572Z,61.40
2022-07-29T06:05:40.524Z,62.20
2022-07-29T06:08:08.383Z,61.60
2022-07-29T06:10:38.900Z,61.00
2022-07-29T06:13:05.791Z,59.00
2022-07-29T06:15:32.785Z,59.90
2022-07-29T06:18:01.951Z,60.90
2022-07-29T06:20:33.268Z,62.30
2022-07-29T06:23:01.007Z,62.50
2022-07-29T06:25:30.487Z,62.60
2022-07-29T06:27:58.241Z,62.20
2022-07-29T06:30:25.304Z,62.10
2022-07-29T06:32:52.344Z,62.20
2022-07-29T06:35:41.638Z,62.30
2022-07-29T06:38:25.662Z,62.60
2022-07-29T06:41:02.778Z,62.10
2022-07-29T06:43:50.337Z,61.30
2022-07-29T06:46:18.861Z,60.00
2022-07-29T06:48:45.995Z,62.00
2022-07-29T06:51:13.133Z,61.80
2022-07-29T06:53:40.219Z,61.00
2022-07-29T06:56:26.236Z,61.40
2022-07-29T06:58:53.243Z,62.30
2022-07-29T07:01:20.940Z,62.90
2022-07-29T07:03:48.778Z,63.20
2022-07-29T07:06:15.846Z,61.60
2022-07-29T07:08:42.738Z,62.50
2022-07-29T07:11:09.986Z,60.20
2022-07-29T07:13:37.020Z,60.00
2022-07-29T07:16:04.468Z,60.00
2022-07-29T07:18:31.501Z,60.30
2022-07-29T07:20:58.448Z,60.30
2022-07-29T07:23:25.834Z,60.80
2022-07-29T07:25:52.800Z,61.30
2022-07-29T07:28:24.564Z,62.30
2022-07-29T07:30:52.846Z,63.20
2022-07-29T07:33:19.996Z,63.40
2022-07-29T07:35:47.119Z,64.50
2022-07-29T07:38:14.232Z,62.90
2022-07-29T07:40:41.612Z,61.20
2022-07-29T07:43:08.606Z,61.40
2022-07-29T07:45:38.128Z,59.20
2022-07-29T07:48:05.866Z,57.30
2022-07-29T07:50:32.903Z,56.20
2022-07-29T07:53:00.050Z,55.00
2022-07-29T07:55:27.116Z,54.40
2022-07-29T07:57:54.667Z,53.90
2022-07-29T08:00:23.117Z,52.40
2022-07-29T08:02:51.279Z,54.60
2022-07-29T08:05:18.549Z,52.70
2022-07-29T08:07:46.894Z,50.50
2022-07-29T08:10:15.472Z,51.50
2022-07-29T08:12:43.058Z,49.30
2022-07-29T08:15:10.206Z,47.90
2022-07-29T08:17:37.206Z,46.60
2022-07-29T08:20:04.712Z,47.70
2022-07-29T08:22:31.789Z,44.30
2022-07-29T08:24:58.731Z,46.20
2022-07-29T08:27:43.070Z,46.00
2022-07-29T08:30:11.495Z,46.10
2022-07-29T08:32:55.239Z,46.10
2022-07-29T08:35:23.515Z,45.00
2022-07-29T08:37:50.464Z,44.90
2022-07-29T08:40:17.601Z,44.30
2022-07-29T08:42:44.639Z,43.70
2022-07-29T08:45:11.964Z,42.60
2022-07-29T08:47:40.860Z,43.70
2022-07-29T08:50:09.101Z,43.40
2022-07-29T08:52:38.299Z,43.90
2022-07-29T08:55:09.621Z,42.70
2022-07-29T08:57:37.272Z,42.50
2022-07-29T09:00:11.639Z,43.10
2022-07-29T09:02:41.275Z,41.90
2022-07-29T09:05:08.475Z,43.90
2022-07-29T09:07:35.749Z,44.20
2022-07-29T09:10:02.677Z,42.10
2022-07-29T09:12:33.685Z,39.20
2022-07-29T09:15:03.631Z,41.00
2022-07-29T09:17:50.147Z,40.10
2022-07-29T09:20:18.544Z,38.20
2022-07-29T09:22:50.142Z,38.80
2022-07-29T09:25:37.762Z,40.00
2022-07-29T09:28:08.879Z,39.00
2022-07-29T09:30:36.186Z,40.50
2022-07-29T09:33:04.046Z,40.60
2022-07-29T09:35:31.501Z,40.50
2022-07-29T09:37:58.516Z,41.50
2022-07-29T09:40:29.012Z,39.50
2022-07-29T09:42:59.337Z,38.90
2022-07-29T09:45:29.525Z,39.50
2022-07-29T09:47:58.475Z,36.40
2022-07-29T09:50:42.264Z,38.30
2022-07-29T09:53:12.241Z,38.10
2022-07-29T09:55:49.651Z,39.70
2022-07-29T09:58:21.025Z,40.20
2022-07-29T10:00:48.924Z,40.90
2022-07-29T10:03:16.847Z,40.70
2022-07-29T10:05:44.284Z,40.90
2022-07-29T10:08:13.296Z,39.70
2022-07-29T10:10:42.715Z,39.10
2022-07-29T10:13:16.648Z,39.40
2022-07-29T10:15:46.037Z,38.40
2022-07-29T10:18:14.109Z,39.60
2022-07-29T10:20:41.270Z,37.40
2022-07-29T10:23:08.260Z,37.00
2022-07-29T10:25:35.162Z,36.50
2022-07-29T10:28:02.156Z,37.10
2022-07-29T10:30:29.247Z,37.10
2022-07-29T10:33:17.600Z,36.90
2022-07-29T10:36:03.205Z,37.30
2022-07-29T10:39:17.290Z,38.50
2022-07-29T10:42:01.506Z,38.10
2022-07-29T10:44:30.781Z,40.20
2022-07-29T10:46:58.967Z,40.00
2022-07-29T10:49:28.046Z,39.60
2022-07-29T10:52:10.324Z,39.70
2022-07-29T10:54:39.705Z,39.30
2022-07-29T10:57:16.520Z,39.30
2022-07-29T10:59:47.803Z,38.60
2022-07-29T11:02:42.661Z,38.40
2022-07-29T11:05:12.961Z,38.40
2022-07-29T11:07:46.012Z,38.10
2022-07-29T11:10:16.620Z,37.30
2022-07-29T11:12:47.075Z,37.50
2022-07-29T11:15:21.969Z,37.40
2022-07-29T11:17:55.098Z,37.30
2022-07-29T11:20:36.494Z,37.40
2022-07-29T11:23:25.214Z,37.80
2022-07-29T11:26:14.417Z,38.10
2022-07-29T11:29:05.535Z,36.90
2022-07-29T11:31:36.882Z,37.60
2022-07-29T11:34:20.843Z,37.50
2022-07-29T11:37:06.469Z,37.00
2022-07-29T11:39:37.123Z,37.30
2022-07-29T11:42:32.564Z,37.00
2022-07-29T11:45:42.848Z,37.20
2022-07-29T11:48:05.221Z,37.30
2022-07-29T11:50:46.244Z,36.60
2022-07-29T11:53:16.111Z,37.40
2022-07-29T11:55:51.708Z,37.00
2022-07-29T11:58:25.116Z,36.40
2022-07-29T12:00:53.178Z,37.20
2022-07-29T12:03:33.382Z,36.80
2022-07-29T12:06:02.799Z,36.40
2022-07-29T12:08:29.788Z,36.60
2022-07-29T12:10:56.825Z,36.90
2022-07-29T12:13:37.233Z,36.30
2022-07-29T12:16:05.446Z,36.50
2022-07-29T12:18:32.660Z,36.20
2022-07-29T12:21:03.321Z,37.10
2022-07-29T12:23:35.027Z,36.50
2022-07-29T12:26:07.642Z,37.30
2022-07-29T12:28:39.549Z,36.80
2022-07-29T12:31:08.129Z,37.60
2022-07-29T12:33:36.166Z,36.40
2022-07-29T12:36:07.253Z,37.10
2022-07-29T12:38:35.936Z,37.80
2022-07-29T12:41:04.588Z,37.90
2022-07-29T12:43:31.898Z,37.50
2022-07-29T12:45:59.017Z,37.70
2022-07-29T12:48:39.089Z,36.80
2022-07-29T12:51:07.346Z,36.80
2022-07-29T12:53:34.449Z,37.00
2022-07-29T12:56:15.623Z,36.80
2022-07-29T12:58:51.419Z,37.00
2022-07-29T13:01:22.035Z,37.80
2022-07-29T13:03:56.856Z,38.20
2022-07-29T13:06:45.882Z,37.70
2022-07-29T13:09:14.599Z,38.40
2022-07-29T13:11:46.639Z,39.00
2022-07-29T13:14:30.931Z,38.80
2022-07-29T13:17:02.179Z,38.50
2022-07-29T13:19:35.275Z,37.00
2022-07-29T13:22:02.205Z,37.60
2022-07-29T13:24:29.220Z,38.20
2022-07-29T13:26:57.062Z,38.40
2022-07-29T13:29:26.547Z,38.70
2022-07-29T13:31:56.458Z,38.10
2022-07-29T13:34:25.248Z,37.50
2022-07-29T13:36:55.254Z,37.00
2022-07-29T13:39:22.406Z,37.20
2022-07-29T13:41:49.343Z,37.50
2022-07-29T13:44:16.324Z,37.20
2022-07-29T13:46:43.235Z,36.30
2022-07-29T13:49:10.781Z,36.40
2022-07-29T13:51:38.030Z,36.30
2022-07-29T13:54:05.302Z,36.30
2022-07-29T13:56:32.419Z,36.30
2022-07-29T13:58:59.354Z,37.10
2022-07-29T14:01:27.249Z,36.40
2022-07-29T14:03:54.631Z,36.40
2022-07-29T14:06:22.917Z,36.40
2022-07-29T14:08:49.897Z,36.60
2022-07-29T14:11:16.941Z,35.80
2022-07-29T14:13:43.887Z,35.40
2022-07-29T14:16:10.907Z,36.00
2022-07-29T14:18:37.888Z,35.60
2022-07-29T14:21:04.934Z,35.00
2022-07-29T14:23:31.971Z,36.60
2022-07-29T14:25:59.068Z,35.30
2022-07-29T14:28:25.975Z,35.40
2022-07-29T14:30:52.951Z,36.20
2022-07-29T14:33:19.951Z,36.40
2022-07-29T14:35:46.914Z,35.40
2022-07-29T14:38:14.273Z,35.20
2022-07-29T14:40:41.239Z,35.50
2022-07-29T14:43:08.276Z,36.00
2022-07-29T14:45:35.515Z,36.20
2022-07-29T14:48:02.512Z,36.10
2022-07-29T14:50:31.661Z,36.60
2022-07-29T14:53:00.075Z,36.90
2022-07-29T14:55:27.227Z,36.70
2022-07-29T14:58:03.099Z,36.60
2022-07-29T15:00:35.001Z,36.10
2022-07-29T15:03:03.052Z,36.10
2022-07-29T15:05:31.132Z,36.10
2022-07-29T15:07:58.481Z,36.10
2022-07-29T15:10:27.181Z,36.20
2022-07-29T15:12:54.938Z,35.70
2022-07-29T15:15:21.995Z,36.30
2022-07-29T15:17:49.165Z,36.30
2022-07-29T15:20:16.104Z,36.40
2022-07-29T15:22:43.978Z,36.40
2022-07-29T15:25:11.117Z,36.00
2022-07-29T15:27:38.065Z,35.40
2022-07-29T15:30:05.591Z,35.80
2022-07-29T15:32:32.544Z,35.40
2022-07-29T15:34:59.514Z,35.50
2022-07-29T15:37:26.424Z,35.70
2022-07-29T15:39:55.994Z,36.00
2022-07-29T15:42:27.051Z,36.00
2022-07-29T15:44:53.991Z,36.10
2022-07-29T15:47:21.020Z,36.10
2022-07-29T15:49:49.518Z,36.10
2022-07-29T15:52:25.866Z,36.20
2022-07-29T15:54:54.520Z,36.20
2022-07-29T15:57:21.531Z,36.40
2022-07-29T15:59:48.458Z,36.50
2022-07-29T16:02:15.636Z,35.90
2022-07-29T16:04:42.604Z,36.30
2022-07-29T16:07:09.745Z,36.30
2022-07-29T16:09:36.738Z,36.30
2022-07-29T16:12:05.259Z,36.00
2022-07-29T16:14:42.843Z,36.20
2022-07-29T16:17:14.436Z,36.20
2022-07-29T16:19:43.453Z,36.10
2022-07-29T16:22:10.753Z,36.20
2022-07-29T16:24:38.917Z,36.30
2022-07-29T16:27:05.966Z,35.90
2022-07-29T16:29:33.390Z,35.70
2022-07-29T16:32:01.352Z,35.20
2022-07-29T16:34:28.535Z,35.60
2022-07-29T16:36:55.452Z,35.30
2022-07-29T16:39:22.385Z,35.30
2022-07-29T16:41:49.418Z,35.60
2022-07-29T16:44:16.591Z,35.30
2022-07-29T16:46:45.434Z,35.50
2022-07-29T16:49:15.387Z,35.30
2022-07-29T16:51:47.878Z,35.50
2022-07-29T16:54:14.866Z,35.50
2022-07-29T16:56:41.786Z,35.00
2022-07-29T16:59:08.732Z,35.80
2022-07-29T17:01:35.677Z,35.60
2022-07-29T17:04:08.890Z,35.90
2022-07-29T17:06:39.139Z,36.00
2022-07-29T17:09:08.672Z,35.50
2022-07-29T17:11:53.050Z,35.50
2022-07-29T17:14:25.767Z,36.00
2022-07-29T17:17:00.186Z,35.20
2022-07-29T17:19:28.870Z,35.10
2022-07-29T17:22:04.688Z,35.30
2022-07-29T17:24:34.039Z,35.70
2022-07-29T17:27:01.357Z,35.50
2022-07-29T17:29:28.299Z,35.70
2022-07-29T17:31:55.271Z,36.20
2022-07-29T17:34:22.551Z,36.20
2022-07-29T17:36:49.526Z,35.90
2022-07-29T17:39:16.920Z,36.10
2022-07-29T17:41:46.806Z,36.00
2022-07-29T17:44:13.778Z,36.00
2022-07-29T17:46:40.842Z,36.00
2022-07-29T17:49:07.994Z,36.00
2022-07-29T17:51:35.089Z,36.00
2022-07-29T17:54:02.121Z,38.00
2022-07-29T17:56:29.102Z,40.50
2022-07-29T17:58:57.027Z,41.90
2022-07-29T18:01:24.010Z,42.90
2022-07-29T18:03:50.981Z,43.10
2022-07-29T18:06:18.075Z,43.30
2022-07-29T18:08:47.572Z,44.50
2022-07-29T18:11:15.155Z,44.60
2022-07-29T18:13:42.291Z,45.10
2022-07-29T18:16:09.475Z,45.20
2022-07-29T18:18:36.476Z,45.60
2022-07-29T18:21:03.690Z,46.00
2022-07-29T18:23:30.595Z,45.80
2022-07-29T18:25:57.632Z,45.90
2022-07-29T18:28:24.559Z,46.80
2022-07-29T18:30:51.628Z,47.10
2022-07-29T18:33:21.833Z,47.40
2022-07-29T18:35:50.028Z,47.60
2022-07-29T18:38:17.197Z,48.20
2022-07-29T18:40:45.808Z,48.80
2022-07-29T18:43:12.990Z,48.80
2022-07-29T18:45:40.065Z,48.90
2022-07-29T18:48:12.717Z,49.00
2022-07-29T18:50:41.033Z,49.40
2022-07-29T18:53:08.112Z,49.50
2022-07-29T18:55:35.147Z,47.90
2022-07-29T18:58:02.110Z,47.70
2022-07-29T19:00:29.083Z,47.40
2022-07-29T19:02:56.789Z,47.60
2022-07-29T19:05:23.925Z,47.60
2022-07-29T19:07:51.041Z,47.80
2022-07-29T19:10:18.257Z,48.00
2022-07-29T19:12:45.189Z,48.10
2022-07-29T19:15:12.216Z,48.70
2022-07-29T19:17:47.112Z,48.20
2022-07-29T19:20:14.529Z,48.60
2022-07-29T19:22:41.838Z,48.80
2022-07-29T19:25:10.097Z,49.30
2022-07-29T19:27:37.318Z,49.30
2022-07-29T19:30:06.518Z,50.10
2022-07-29T19:32:33.821Z,49.80
2022-07-29T19:35:19.252Z,49.90
2022-07-29T19:37:46.253Z,49.90
2022-07-29T19:40:13.239Z,49.90
2022-07-29T19:42:40.195Z,49.90
2022-07-29T19:45:07.487Z,51.10
2022-07-29T19:47:34.703Z,50.80
2022-07-29T19:50:01.901Z,50.70
2022-07-29T19:52:29.024Z,51.00
2022-07-29T19:54:56.031Z,51.30
2022-07-29T19:57:22.964Z,51.40
2022-07-29T19:59:51.149Z,50.90
2022-07-29T20:02:18.436Z,51.80
2022-07-29T20:04:45.478Z,51.40
2022-07-29T20:07:13.600Z,51.60
2022-07-29T20:09:41.248Z,51.00
2022-07-29T20:12:11.864Z,51.50
2022-07-29T20:14:38.868Z,52.70
2022-07-29T20:17:05.871Z,52.40
2022-07-29T20:19:33.277Z,54.20
2022-07-29T20:22:00.413Z,53.60
2022-07-29T20:24:27.358Z,53.50
2022-07-29T20:26:54.308Z,54.20
2022-07-29T20:29:21.213Z,54.10
2022-07-29T20:31:52.263Z,54.20
2022-07-29T20:34:23.386Z,55.00
2022-07-29T20:36:50.466Z,54.40
2022-07-29T20:39:17.391Z,54.80
2022-07-29T20:41:44.568Z,55.50
2022-07-29T20:44:11.597Z,56.10
2022-07-29T20:46:39.483Z,57.70
2022-07-29T20:49:06.533Z,57.50
2022-07-29T20:51:43.308Z,57.80
2022-07-29T20:54:10.971Z,58.70
2022-07-29T20:56:38.209Z,59.60
2022-07-29T20:59:05.248Z,59.70
2022-07-29T21:01:32.366Z,60.20
2022-07-29T21:04:03.080Z,60.00
2022-07-29T21:06:30.412Z,59.70
2022-07-29T21:08:59.532Z,58.50
2022-07-29T21:11:43.219Z,58.60
2022-07-29T21:14:20.270Z,59.00
2022-07-29T21:16:47.337Z,59.80
2022-07-29T21:19:14.427Z,59.20
2022-07-29T21:21:41.363Z,60.20
2022-07-29T21:24:08.507Z,60.60
2022-07-29T21:26:39.108Z,61.70
2022-07-29T21:29:06.129Z,61.90
2022-07-29T21:31:33.074Z,62.60
2022-07-29T21:34:00.008Z,62.50
2022-07-29T21:39:13.839Z,63.20
2022-07-29T21:41:40.824Z,64.20
2022-07-29T21:44:07.740Z,64.20
2022-07-29T21:46:36.528Z,64.50
2022-07-29T21:49:03.605Z,64.00
2022-07-29T21:51:30.647Z,64.30
2022-07-29T21:53:57.585Z,65.00
2022-07-29T21:56:27.783Z,65.10
2022-07-29T21:58:55.357Z,64.90
2022-07-29T22:01:22.341Z,65.00
2022-07-29T22:03:49.302Z,64.50
2022-07-29T22:06:17.984Z,64.80
2022-07-29T22:08:45.772Z,65.20
2022-07-29T22:11:13.313Z,64.20
2022-07-29T22:13:40.383Z,64.20
2022-07-29T22:16:09.533Z,65.20
2022-07-29T22:18:36.611Z,64.20
2022-07-29T22:21:03.709Z,64.10
2022-07-29T22:23:30.773Z,64.50
2022-07-29T22:25:57.686Z,64.30
2022-07-29T22:28:24.611Z,64.20
2022-07-29T22:30:51.820Z,64.50
2022-07-29T22:33:18.812Z,64.40
2022-07-29T22:35:48.528Z,66.00
2022-07-29T22:38:17.421Z,66.00
2022-07-29T22:40:44.359Z,65.70
2022-07-29T22:43:11.404Z,65.80
2022-07-29T22:45:38.557Z,66.10
2022-07-29T22:48:06.017Z,65.00
2022-07-29T22:50:32.955Z,66.10
2022-07-29T22:52:59.869Z,65.90
2022-07-29T22:55:26.798Z,66.00
2022-07-29T22:57:53.815Z,65.10
2022-07-29T23:00:20.788Z,65.40
2022-07-29T23:02:47.832Z,65.50
2022-07-29T23:05:15.944Z,66.00
2022-07-29T23:07:43.136Z,65.90
2022-07-29T23:10:10.241Z,65.80
2022-07-29T23:12:37.176Z,65.80
2022-07-29T23:15:05.471Z,65.80
2022-07-29T23:17:36.257Z,65.80
2022-07-29T23:20:09.744Z,65.80
2022-07-29T23:22:36.801Z,65.70
2022-07-29T23:25:04.132Z,66.00
2022-07-29T23:27:31.072Z,66.30
2022-07-29T23:29:58.069Z,66.10
2022-07-29T23:32:25.033Z,66.20
2022-07-29T23:34:51.998Z,66.30
2022-07-29T23:37:18.941Z,66.00
2022-07-29T23:39:45.914Z,65.90
2022-07-29T23:42:13.026Z,65.50
2022-07-29T23:44:39.967Z,65.50
2022-07-29T23:47:06.910Z,65.60
2022-07-29T23:49:33.918Z,66.40
2022-07-29T23:52:00.815Z,66.70
2022-07-29T23:54:27.837Z,66.40
2022-07-29T23:56:56.731Z,66.90
2022-07-29T23:59:24.539Z,66.40
